Time;durP1;ratioP1;P1;durP2;ratioP2;P2;SDS_P1;SDS_P2;PMS_P1;PMS_P2;Temp;Humidity;BMP_temperature;BMP_pressure;BME280_temperature;BME280_humidity;BME280_pressure;Samples;Min_cycle;Max_cycle;Signal;HPM_P1;HPM_P2
2022/05/31 00:00:49;;;;;;;;;;;;;;;11.32;55.56;97683.97;5096962;28;20527;-60
2022/05/31 00:03:39;;;;;;;;;;;;;;;11.38;55.37;97688.13;5097084;28;19920;-60
2022/05/31 00:06:27;;;;;;;;;;;;;;;11.18;55.90;97680.59;5092045;28;19927;-60
2022/05/31 00:09:15;;;;;;;;;;;;;;;11.09;56.42;97672.47;5098955;28;19972;-59
2022/05/31 00:12:06;;;;;;;;;;;;;;;11.30;56.26;97671.81;5095508;28;19989;-59
2022/05/31 00:14:54;;;;;;;;;;;;;;;11.06;56.77;97683.16;5091455;28;19988;-58
2022/05/31 00:18:08;;;;;;;;;;;;;;;11.01;57.01;97684.13;5097456;28;20304;-57
2022/05/31 00:21:26;;;;;;;;;;;;;;;11.05;56.57;97678.84;5095359;28;19924;-57
2022/05/31 00:24:17;;;;;;;;;;;;;;;11.19;56.82;97676.78;5097393;28;19919;-58
2022/05/31 00:27:06;;;;;;;;;;;;;;;10.72;57.97;97679.31;5099115;28;20013;-58
2022/05/31 00:29:57;;;;;;;;;;;;;;;10.63;58.30;97676.56;5100432;28;19919;-58
2022/05/31 00:32:47;;;;;;;;;;;;;;;10.53;59.02;97682.31;5097964;28;20379;-57
2022/05/31 00:35:38;;;;;;;;;;;;;;;10.62;58.67;97683.13;5078122;28;19920;-58
2022/05/31 00:38:26;;;;;;;;;;;;;;;10.56;58.75;97680.88;5075235;28;20327;-58
2022/05/31 00:41:41;;;;;;;;;;;;;;;10.83;57.96;97680.59;5094905;28;20121;-58
2022/05/31 00:44:30;;;;;;;;;;;;;;;10.54;58.73;97683.09;5087948;28;19950;-58
2022/05/31 00:47:42;;;;;;;;;;;;;;;10.45;59.00;97686.63;5097649;28;20061;-57
2022/05/31 00:50:33;;;;;;;;;;;;;;;10.39;59.35;97690.59;5091174;28;20318;-58
2022/05/31 00:53:23;;;;;;;;;;;;;;;10.47;58.89;97686.28;5090026;28;19945;-58
2022/05/31 00:56:12;;;;;;;;;;;;;;;10.45;58.75;97680.38;5087192;28;19959;-58
2022/05/31 00:59:03;;;;;;;;;;;;;;;10.35;59.22;97686.09;5096234;28;20009;-59
2022/05/31 01:01:56;;;;;;;;;;;;;;;10.27;59.27;97682.22;5094326;28;20149;-59
2022/05/31 01:04:46;;;;;;;;;;;;;;;10.23;59.82;97692.09;5090848;28;20131;-58
2022/05/31 01:07:34;;;;;;;;;;;;;;;10.26;59.75;97696.13;5092327;28;19919;-59
2022/05/31 01:10:23;;;;;;;;;;;;;;;10.24;59.62;97696.44;5072576;28;19920;-60
2022/05/31 01:13:17;;;;;;;;;;;;;;;10.23;59.77;97700.25;5089500;28;19920;-58
2022/05/31 01:16:25;;;;;;;;;;;;;;;10.29;59.43;97692.78;5096073;28;20276;-59
2022/05/31 01:22:42;;;;;;;;;;;;;;;10.32;59.37;97708.44;5095684;28;19973;-59
2022/05/31 01:25:33;;;;;;;;;;;;;;;10.08;60.30;97711.53;5091828;28;19938;-58
2022/05/31 01:28:33;;;;;;;;;;;;;;;10.46;58.90;97703.72;5093031;28;19924;-58
2022/05/31 01:31:47;;;;;;;;;;;;;;;10.42;58.97;97708.16;5092381;28;19951;-57
2022/05/31 01:34:36;;;;;;;;;;;;;;;10.31;59.54;97698.69;5084002;28;20311;-58
2022/05/31 01:37:25;;;;;;;;;;;;;;;10.29;59.37;97698.22;5097543;28;19923;-58
2022/05/31 01:40:16;;;;;;;;;;;;;;;10.24;59.38;97701.88;5099671;28;19924;-58
2022/05/31 01:43:05;;;;;;;;;;;;;;;10.34;59.32;97700.81;5083366;28;20014;-59
2022/05/31 01:45:56;;;;;;;;;;;;;;;10.31;59.26;97698.69;5072101;28;19958;-59
2022/05/31 01:48:44;;;;;;;;;;;;;;;10.25;59.50;97697.25;5089957;28;19924;-59
2022/05/31 01:51:33;;;;;;;;;;;;;;;10.23;59.47;97692.94;5097952;28;19920;-58
2022/05/31 01:54:21;;;;;;;;;;;;;;;10.16;59.60;97694.47;5097632;28;19924;-58
2022/05/31 01:57:13;;;;;;;;;;;;;;;10.31;59.26;97694.06;5096451;28;19924;-59
2022/05/31 02:00:02;;;;;;;;;;;;;;;10.15;59.62;97692.88;5091554;28;20351;-58
2022/05/31 02:02:54;;;;;;;;;;;;;;;10.12;59.65;97699.72;5091704;28;19924;-58
2022/05/31 02:05:46;;;;;;;;;;;;;;;10.14;59.68;97692.06;5095441;28;19924;-59
2022/05/31 02:09:00;;;;;;;;;;;;;;;10.27;59.29;97693.09;5071765;28;19925;-59
2022/05/31 02:11:49;;;;;;;;;;;;;;;10.43;58.79;97693.47;5090225;28;20020;-59
2022/05/31 02:14:46;;;;;;;;;;;;;;;10.04;59.99;97692.34;5079229;28;19997;-57
2022/05/31 02:17:35;;;;;;;;;;;;;;;9.93;60.28;97691.00;5087108;28;19931;-59
2022/05/31 02:20:47;;;;;;;;;;;;;;;10.02;60.07;97696.50;5091112;28;19965;-58
2022/05/31 02:23:35;;;;;;;;;;;;;;;9.90;60.42;97687.00;5093283;28;19924;-58
2022/05/31 02:26:24;;;;;;;;;;;;;;;10.07;60.12;97690.94;5096289;28;19920;-57
2022/05/31 02:29:16;;;;;;;;;;;;;;;9.96;60.38;97685.78;5093998;28;20288;-58
2022/05/31 02:32:08;;;;;;;;;;;;;;;9.91;60.25;97683.19;5097198;28;19970;-59
2022/05/31 02:34:57;;;;;;;;;;;;;;;10.02;59.90;97682.91;5102338;28;19924;-58
2022/05/31 02:37:45;;;;;;;;;;;;;;;9.91;60.34;97685.13;5081261;28;20500;-59
2022/05/31 02:40:33;;;;;;;;;;;;;;;9.65;61.29;97682.25;5085643;28;19927;-59
2022/05/31 02:43:23;;;;;;;;;;;;;;;9.74;61.17;97679.56;5098410;28;19928;-60
2022/05/31 02:46:11;;;;;;;;;;;;;;;9.81;60.67;97680.75;5084193;28;19953;-59
2022/05/31 02:49:01;;;;;;;;;;;;;;;9.76;61.07;97680.88;5096912;28;19993;-58
2022/05/31 02:51:50;;;;;;;;;;;;;;;9.58;61.47;97681.88;5084842;28;20273;-59
2022/05/31 02:54:46;;;;;;;;;;;;;;;9.66;61.45;97678.44;5100738;28;19919;-59
2022/05/31 02:57:40;;;;;;;;;;;;;;;9.61;61.43;97681.28;5100392;28;19931;-58
2022/05/31 03:00:47;;;;;;;;;;;;;;;9.67;61.20;97686.25;5097024;28;20395;-59
2022/05/31 03:03:54;;;;;;;;;;;;;;;9.62;61.29;97680.94;5099804;28;20096;-59
2022/05/31 03:07:03;;;;;;;;;;;;;;;9.76;60.91;97682.78;5095217;28;19955;-59
2022/05/31 03:10:16;;;;;;;;;;;;;;;9.65;61.34;97684.97;5092382;28;19981;-59
2022/05/31 03:13:05;;;;;;;;;;;;;;;9.79;60.56;97685.66;5081362;28;19931;-60
2022/05/31 03:15:54;;;;;;;;;;;;;;;9.59;60.88;97681.59;5094012;28;19977;-60
2022/05/31 03:19:06;;;;;;;;;;;;;;;9.52;61.59;97688.53;5090347;28;20443;-59
2022/05/31 03:21:55;;;;;;;;;;;;;;;9.49;61.72;97681.84;5099191;28;19920;-60
2022/05/31 03:24:47;;;;;;;;;;;;;;;9.77;61.17;97692.53;5083393;28;19920;-58
2022/05/31 03:30:48;;;;;;;;;;;;;;;9.50;61.55;97682.63;5099939;28;19926;-58
2022/05/31 03:33:37;;;;;;;;;;;;;;;9.64;61.17;97691.47;5096243;28;19969;-57
2022/05/31 03:36:25;;;;;;;;;;;;;;;9.84;60.43;97685.53;5097536;28;19981;-60
2022/05/31 03:39:24;;;;;;;;;;;;;;;9.72;60.91;97690.75;5083047;28;20011;-60
2022/05/31 03:42:15;;;;;;;;;;;;;;;9.49;61.47;97694.59;5099201;28;19924;-60
2022/05/31 03:45:05;;;;;;;;;;;;;;;9.45;61.53;97697.91;5094510;28;19932;-57
2022/05/31 03:48:37;;;;;;;;;;;;;;;9.44;61.70;97700.94;5091137;28;19924;-57
2022/05/31 03:51:27;;;;;;;;;;;;;;;9.61;61.49;97702.97;5078353;28;19930;-57
2022/05/31 03:54:21;;;;;;;;;;;;;;;9.54;61.22;97697.19;5076847;28;19932;-61
2022/05/31 03:57:34;;;;;;;;;;;;;;;9.48;62.02;97701.94;5072287;28;19930;-57
2022/05/31 04:00:48;;;;;;;;;;;;;;;9.48;61.94;97701.13;5091615;28;19920;-58
2022/05/31 04:03:43;;;;;;;;;;;;;;;9.65;61.28;97706.66;5089224;28;19981;-58
2022/05/31 04:07:00;;;;;;;;;;;;;;;9.63;61.05;97703.44;5080401;28;19967;-58
2022/05/31 04:09:51;;;;;;;;;;;;;;;10.03;59.98;97701.59;5079161;28;19924;-59
2022/05/31 04:16:12;;;;;;;;;;;;;;;9.60;61.54;97694.03;5085689;28;19977;-58
2022/05/31 04:19:11;;;;;;;;;;;;;;;9.78;60.83;97708.50;5082246;28;19920;-58
2022/05/31 04:22:00;;;;;;;;;;;;;;;9.96;60.59;97695.84;5081683;28;19919;-59
2022/05/31 04:24:52;;;;;;;;;;;;;;;9.82;60.75;97709.47;5085659;28;19965;-57
2022/05/31 04:28:15;;;;;;;;;;;;;;;9.86;60.78;97715.09;5072590;28;19927;-57
2022/05/31 04:31:05;;;;;;;;;;;;;;;9.86;61.04;97723.22;5094042;28;19924;-58
2022/05/31 04:34:13;;;;;;;;;;;;;;;9.96;60.34;97722.97;5091181;28;20093;-58
2022/05/31 04:37:01;;;;;;;;;;;;;;;10.14;60.20;97729.28;5093498;28;20010;-58
2022/05/31 04:40:34;;;;;;;;;;;;;;;10.09;60.32;97726.69;5091769;28;20583;-59
2022/05/31 04:43:43;;;;;;;;;;;;;;;10.08;60.55;97725.09;5096268;28;20423;-58
2022/05/31 04:46:43;;;;;;;;;;;;;;;10.10;60.58;97722.84;5097649;28;19972;-58
2022/05/31 04:49:48;;;;;;;;;;;;;;;10.17;60.21;97713.16;5075142;28;19923;-58
2022/05/31 04:59:16;;;;;;;;;;;;;;;10.83;58.58;97712.41;5078063;28;20002;-60
2022/05/31 05:05:31;;;;;;;;;;;;;;;10.44;60.21;97700.50;5088494;28;19920;-59
2022/05/31 05:08:07;;;;;;;;;;;;;;;11.13;58.14;97697.06;5084662;28;19967;-59
2022/05/31 05:10:37;;;;;;;;;;;;;;;10.77;59.16;97687.31;5081074;28;19926;-57
2022/05/31 05:13:35;;;;;;;;;;;;;;;11.08;58.48;97686.34;5098296;28;19920;-58
2022/05/31 05:16:07;;;;;;;;;;;;;;;11.30;57.90;97688.13;5094541;28;20567;-58
2022/05/31 05:18:38;;;;;;;;;;;;;;;11.01;58.53;97684.13;5085655;28;20455;-57
2022/05/31 05:21:08;;;;;;;;;;;;;;;11.01;58.77;97692.28;5100958;28;20030;-58
2022/05/31 05:23:37;;;;;;;;;;;;;;;11.02;58.90;97700.13;5081800;28;19976;-57
2022/05/31 05:26:10;;;;;;;;;;;;;;;11.41;57.78;97692.91;5084120;28;20355;-57
2022/05/31 05:31:46;;;;;;;;;;;;;;;11.37;57.82;97691.97;5099465;28;19927;-57
2022/05/31 05:35:22;;;;;;;;;;;;;;;11.48;57.26;97695.16;5063852;28;19924;-59
2022/05/31 05:37:59;;;;;;;;;;;;;;;11.37;57.66;97683.78;5063716;28;19920;-58
2022/05/31 05:40:34;;;;;;;;;;;;;;;11.55;57.01;97690.00;5083354;28;19925;-59
2022/05/31 05:43:08;;;;;;;;;;;;;;;11.48;57.66;97671.47;5081677;28;20019;-57
2022/05/31 05:45:49;;;;;;;;;;;;;;;11.58;57.16;97678.50;5065562;28;19982;-57
2022/05/31 05:48:19;;;;;;;;;;;;;;;12.03;56.12;97683.50;5065378;28;20055;-58
2022/05/31 05:50:48;;;;;;;;;;;;;;;12.16;55.46;97684.44;5065765;28;19926;-58
2022/05/31 05:53:35;;;;;;;;;;;;;;;12.05;56.50;97671.19;5066165;28;20392;-57
2022/05/31 05:56:21;;;;;;;;;;;;;;;12.12;55.99;97669.88;5062847;28;19921;-57
2022/05/31 05:59:09;;;;;;;;;;;;;;;12.41;55.18;97664.44;5063445;28;19924;-58
2022/05/31 06:01:56;;;;;;;;;;;;;;;12.30;55.76;97657.75;5060712;28;19924;-57
2022/05/31 06:05:20;;;;;;;;;;;;;;;12.37;56.45;97655.34;5049518;28;20007;-58
2022/05/31 06:07:49;;;;;;;;;;;;;;;12.63;55.35;97652.44;5070079;28;20225;-58
2022/05/31 06:10:19;;;;;;;;;;;;;;;12.63;55.55;97643.47;5068356;28;19960;-58
2022/05/31 06:12:49;;;;;;;;;;;;;;;12.72;55.56;97639.53;5070122;28;20272;-57
2022/05/31 06:15:18;;;;;;;;;;;;;;;12.87;55.72;97627.25;5064554;28;19921;-57
2022/05/31 06:21:07;;;;;;;;;;;;;;;13.26;54.79;97636.91;5067410;28;19928;-57
2022/05/31 06:23:39;;;;;;;;;;;;;;;13.30;54.41;97640.53;5063608;28;19952;-57
2022/05/31 06:26:11;;;;;;;;;;;;;;;13.58;54.07;97648.13;5062551;28;20007;-56
2022/05/31 06:28:42;;;;;;;;;;;;;;;13.82;53.16;97639.22;5067913;28;20086;-56
2022/05/31 06:31:10;;;;;;;;;;;;;;;13.71;54.03;97629.88;5064969;28;20376;-57
2022/05/31 06:33:37;;;;;;;;;;;;;;;13.75;53.61;97623.41;5094200;28;19924;-57
2022/05/31 06:36:10;;;;;;;;;;;;;;;13.72;54.11;97634.19;5088761;28;19924;-59
2022/05/31 06:38:38;;;;;;;;;;;;;;;14.05;53.22;97637.63;5080806;28;19924;-57
2022/05/31 06:41:09;;;;;;;;;;;;;;;14.06;53.25;97647.44;5108863;28;20378;-59
2022/05/31 06:44:05;;;;;;;;;;;;;;;14.28;52.56;97651.66;5106802;28;20030;-57
2022/05/31 06:46:52;;;;;;;;;;;;;;;14.40;52.78;97656.31;5097849;28;19919;-58
2022/05/31 06:49:38;;;;;;;;;;;;;;;14.90;51.28;97645.00;5103021;28;19924;-57
2022/05/31 07:01:32;;;;;;;;;;;;;;;14.97;51.48;97636.22;5091578;28;19963;-57
2022/05/31 07:04:21;;;;;;;;;;;;;;;15.12;51.37;97640.94;5085669;28;20284;-58
2022/05/31 07:07:10;;;;;;;;;;;;;;;15.26;50.56;97645.22;5099397;28;19924;-57
2022/05/31 07:10:22;;;;;;;;;;;;;;;15.41;49.96;97641.75;5081936;28;20351;-58
2022/05/31 07:13:30;;;;;;;;;;;;;;;15.74;49.44;97646.97;5095258;28;19920;-58
2022/05/31 07:16:37;;;;;;;;;;;;;;;15.91;48.60;97651.31;5100691;28;20012;-58
2022/05/31 07:19:44;;;;;;;;;;;;;;;15.91;49.00;97649.34;5095020;28;19927;-58
2022/05/31 07:22:54;;;;;;;;;;;;;;;16.07;48.17;97649.38;5101939;28;20354;-58
2022/05/31 07:25:49;;;;;;;;;;;;;;;16.21;47.09;97644.25;5097643;28;19931;-58
2022/05/31 07:28:39;;;;;;;;;;;;;;;16.36;46.77;97642.66;5085290;28;19924;-59
2022/05/31 07:31:30;;;;;;;;;;;;;;;16.55;46.33;97641.91;5083178;28;19932;-58
2022/05/31 07:34:27;;;;;;;;;;;;;;;16.92;45.92;97644.31;5098733;28;20240;-58
2022/05/31 07:37:15;;;;;;;;;;;;;;;17.03;45.25;97650.81;5099483;28;20390;-58
2022/05/31 07:40:07;;;;;;;;;;;;;;;17.02;45.91;97650.03;5085065;28;19931;-58
2022/05/31 07:42:55;;;;;;;;;;;;;;;17.15;46.05;97647.97;5096574;28;20159;-58
2022/05/31 07:45:50;;;;;;;;;;;;;;;17.23;45.26;97649.69;5092968;28;19920;-58
2022/05/31 07:48:39;;;;;;;;;;;;;;;17.17;45.36;97647.59;5100349;28;19946;-58
2022/05/31 07:51:47;;;;;;;;;;;;;;;17.34;45.23;97638.13;5097393;28;20469;-58
2022/05/31 07:55:15;;;;;;;;;;;;;;;17.42;44.97;97637.13;5097051;28;19965;-57
2022/05/31 07:58:34;;;;;;;;;;;;;;;17.58;45.04;97637.81;5095067;28;19924;-57
2022/05/31 08:01:28;;;;;;;;;;;;;;;17.79;44.75;97641.00;5088095;28;20291;-56
2022/05/31 08:04:26;;;;;;;;;;;;;;;17.84;43.85;97647.31;5082597;28;19932;-57
2022/05/31 08:07:14;;;;;;;;;;;;;;;17.86;43.66;97645.03;5094474;28;19930;-57
2022/05/31 08:10:02;;;;;;;;;;;;;;;17.86;42.70;97642.28;5098260;28;19939;-56
2022/05/31 08:12:52;;;;;;;;;;;;;;;17.89;43.02;97641.53;5099659;28;20008;-56
2022/05/31 08:15:40;;;;;;;;;;;;;;;18.08;43.31;97643.44;5086975;28;19939;-56
2022/05/31 08:18:29;;;;;;;;;;;;;;;18.22;42.73;97640.94;5094318;28;19988;-57
2022/05/31 08:21:42;;;;;;;;;;;;;;;18.33;41.49;97631.69;5083275;28;19932;-57
2022/05/31 08:24:31;;;;;;;;;;;;;;;18.48;42.11;97629.13;5087671;28;19924;-56
2022/05/31 08:27:34;;;;;;;;;;;;;;;18.72;39.47;97623.25;5098872;28;19931;-57
2022/05/31 08:30:24;;;;;;;;;;;;;;;18.65;39.93;97623.13;5096400;28;19923;-59
2022/05/31 08:33:12;;;;;;;;;;;;;;;18.78;40.14;97624.50;5091909;28;20253;-57
2022/05/31 08:36:01;;;;;;;;;;;;;;;18.92;39.60;97621.16;5099019;28;19919;-57
2022/05/31 08:38:59;;;;;;;;;;;;;;;18.93;39.17;97613.69;5099327;28;20430;-58
2022/05/31 08:41:48;;;;;;;;;;;;;;;19.07;39.08;97611.94;5094335;28;19927;-57
2022/05/31 08:47:53;;;;;;;;;;;;;;;19.24;37.43;97591.28;5093210;28;19919;-57
2022/05/31 08:57:08;;;;;;;;;;;;;;;19.37;36.59;97592.59;5077259;28;19921;-56
2022/05/31 09:00:08;;;;;;;;;;;;;;;19.54;36.93;97595.91;5074527;28;19928;-57
2022/05/31 09:02:59;;;;;;;;;;;;;;;19.66;38.82;97592.94;5099514;28;19928;-56
2022/05/31 09:05:48;;;;;;;;;;;;;;;19.68;36.42;97593.34;5098504;28;20020;-57
2022/05/31 09:08:37;;;;;;;;;;;;;;;19.65;36.55;97585.81;5096790;28;19931;-59
2022/05/31 09:14:41;;;;;;;;;;;;;;;19.90;35.61;97588.81;5093459;28;20266;-59
2022/05/31 09:17:32;;;;;;;;;;;;;;;19.96;34.29;97573.50;5095422;28;19924;-56
2022/05/31 09:20:24;;;;;;;;;;;;;;;20.04;34.34;97580.66;5091267;28;19931;-59
2022/05/31 09:23:13;;;;;;;;;;;;;;;19.91;34.66;97575.81;5096200;28;20459;-59
2022/05/31 09:26:06;;;;;;;;;;;;;;;19.94;36.15;97583.34;5092893;28;19963;-57
2022/05/31 09:29:20;;;;;;;;;;;;;;;20.05;36.45;97584.22;5091398;28;19997;-57
2022/05/31 09:32:12;;;;;;;;;;;;;;;20.17;35.17;97577.59;5088872;28;19920;-57
2022/05/31 09:35:07;;;;;;;;;;;;;;;20.21;36.27;97570.94;5097345;28;19920;-57
2022/05/31 09:38:03;;;;;;;;;;;;;;;20.32;34.25;97563.53;5087920;28;19928;-58
2022/05/31 09:40:52;;;;;;;;;;;;;;;20.22;35.35;97574.50;5096867;28;20387;-57
2022/05/31 09:43:40;;;;;;;;;;;;;;;20.22;34.60;97564.25;5092602;28;19928;-57
2022/05/31 09:46:33;;;;;;;;;;;;;;;20.22;33.80;97575.28;5099939;28;20006;-57
2022/05/31 09:49:26;;;;;;;;;;;;;;;20.35;32.62;97564.75;5091892;28;20380;-58
2022/05/31 09:52:15;;;;;;;;;;;;;;;20.33;32.95;97565.13;5098826;28;19920;-57
2022/05/31 09:58:42;;;;;;;;;;;;;;;20.30;32.71;97556.84;5091517;28;19931;-57
2022/05/31 10:01:43;;;;;;;;;;;;;;;20.56;32.54;97551.13;5094307;28;19920;-59
2022/05/31 10:05:08;;;;;;;;;;;;;;;20.51;34.99;97554.22;5089917;28;19967;-57
2022/05/31 10:08:30;;;;;;;;;;;;;;;20.62;33.83;97540.50;5094421;28;19959;-57
2022/05/31 10:14:37;;;;;;;;;;;;;;;20.84;30.92;97544.16;5096207;28;19993;-57
2022/05/31 10:17:34;;;;;;;;;;;;;;;20.82;32.41;97547.28;5099682;28;19919;-57
2022/05/31 10:20:22;;;;;;;;;;;;;;;20.97;31.43;97542.59;5097909;28;19940;-57
2022/05/31 10:23:15;;;;;;;;;;;;;;;21.01;31.00;97526.06;5106957;28;19924;-57
2022/05/31 10:26:37;;;;;;;;;;;;;;;20.85;30.60;97538.22;5083262;28;20340;-57
2022/05/31 10:30:14;;;;;;;;;;;;;;;20.86;31.25;97531.53;5078049;28;19920;-57
2022/05/31 10:33:18;;;;;;;;;;;;;;;20.92;31.99;97531.94;5090068;28;19927;-57
2022/05/31 10:36:08;;;;;;;;;;;;;;;20.99;32.25;97528.44;5102808;28;20272;-57
2022/05/31 10:42:13;;;;;;;;;;;;;;;21.07;32.67;97524.50;5113172;28;19924;-56
2022/05/31 10:45:04;;;;;;;;;;;;;;;21.09;29.84;97524.88;5105286;28;19920;-57
2022/05/31 10:47:52;;;;;;;;;;;;;;;20.98;28.59;97516.56;5110282;28;20365;-57
2022/05/31 10:50:45;;;;;;;;;;;;;;;20.86;30.77;97522.44;5095046;28;19934;-56
2022/05/31 10:53:36;;;;;;;;;;;;;;;20.68;30.37;97516.84;5100353;28;20375;-57
2022/05/31 10:56:50;;;;;;;;;;;;;;;20.76;32.38;97512.94;5116785;28;19919;-57
2022/05/31 10:59:47;;;;;;;;;;;;;;;20.97;32.82;97506.72;5113158;28;20373;-58
2022/05/31 11:02:55;;;;;;;;;;;;;;;20.97;30.36;97494.88;5099372;28;19970;-59
2022/05/31 11:05:46;;;;;;;;;;;;;;;20.92;30.34;97488.53;5095952;28;19930;-58
2022/05/31 11:11:50;;;;;;;;;;;;;;;20.87;32.66;97488.13;5095539;28;19966;-58
2022/05/31 11:14:33;;;;;;;;;;;;;;;20.90;32.35;97488.16;5106177;28;19958;-58
2022/05/31 11:17:08;;;;;;;;;;;;;;;20.93;32.43;97492.91;5102529;28;20364;-58
2022/05/31 11:19:39;;;;;;;;;;;;;;;21.11;30.03;97494.94;5106256;28;19966;-58
2022/05/31 11:22:16;;;;;;;;;;;;;;;21.19;30.35;97491.78;5116590;28;20014;-58
2022/05/31 11:24:49;;;;;;;;;;;;;;;21.12;30.46;97488.22;5111276;28;20359;-58
2022/05/31 11:27:22;;;;;;;;;;;;;;;21.24;32.40;97496.13;5113888;28;19942;-59
2022/05/31 11:30:15;;;;;;;;;;;;;;;21.36;34.04;97493.03;5113461;28;20275;-58
2022/05/31 11:33:01;;;;;;;;;;;;;;;21.46;31.59;97491.44;5108725;28;20329;-58
2022/05/31 11:35:36;;;;;;;;;;;;;;;21.52;31.69;97489.91;5108390;28;19933;-58
2022/05/31 11:38:08;;;;;;;;;;;;;;;21.59;34.44;97506.47;5111705;28;20019;-58
2022/05/31 11:40:45;;;;;;;;;;;;;;;21.58;32.98;97487.53;5111633;28;19951;-58
2022/05/31 11:43:19;;;;;;;;;;;;;;;21.53;31.04;97496.22;5109794;28;19952;-58
2022/05/31 11:45:47;;;;;;;;;;;;;;;21.49;29.81;97495.41;5105932;28;19926;-58
2022/05/31 11:48:25;;;;;;;;;;;;;;;21.33;28.74;97482.75;5098602;28;19920;-58
2022/05/31 11:50:56;;;;;;;;;;;;;;;21.49;32.70;97478.84;5102855;28;19920;-58
2022/05/31 11:53:51;;;;;;;;;;;;;;;21.52;34.26;97484.38;5106387;28;20180;-58
2022/05/31 11:56:23;;;;;;;;;;;;;;;21.58;32.70;97473.72;5050334;28;19930;-58
2022/05/31 11:59:18;;;;;;;;;;;;;;;21.64;33.70;97467.38;5109359;28;19942;-58
2022/05/31 12:02:10;;;;;;;;;;;;;;;21.65;31.75;97470.94;5112042;28;19941;-58
2022/05/31 12:04:44;;;;;;;;;;;;;;;21.52;32.40;97472.50;5115783;28;19927;-58
2022/05/31 12:07:13;;;;;;;;;;;;;;;21.42;32.11;97466.59;5112448;28;20291;-58
2022/05/31 12:09:43;;;;;;;;;;;;;;;21.30;30.44;97453.13;5115692;28;19920;-58
2022/05/31 12:12:14;;;;;;;;;;;;;;;21.28;31.42;97463.78;5110527;28;19988;-57
2022/05/31 12:14:42;;;;;;;;;;;;;;;21.39;32.31;97453.53;5095252;28;19920;-59
2022/05/31 12:17:10;;;;;;;;;;;;;;;21.52;33.73;97461.44;5093468;28;19977;-58
2022/05/31 12:19:42;;;;;;;;;;;;;;;21.60;30.65;97452.75;5095367;28;19985;-58
2022/05/31 12:22:12;;;;;;;;;;;;;;;21.63;31.88;97449.22;5092898;28;20083;-58
2022/05/31 12:24:41;;;;;;;;;;;;;;;21.65;32.23;97437.75;5094736;28;20310;-58
2022/05/31 12:27:16;;;;;;;;;;;;;;;21.63;31.92;97440.94;5105637;28;20283;-58
2022/05/31 12:29:44;;;;;;;;;;;;;;;21.70;36.10;97449.22;5110472;28;19919;-59
2022/05/31 12:32:42;;;;;;;;;;;;;;;21.93;34.65;97445.22;5110270;28;19919;-58
2022/05/31 12:35:12;;;;;;;;;;;;;;;22.17;35.40;97440.88;5114924;28;19923;-58
2022/05/31 12:37:53;;;;;;;;;;;;;;;22.27;34.65;97439.28;5111421;28;20022;-58
2022/05/31 12:40:23;;;;;;;;;;;;;;;22.23;32.50;97428.22;5115218;28;19920;-58
2022/05/31 12:42:51;;;;;;;;;;;;;;;21.93;33.38;97434.16;5094694;28;19932;-58
2022/05/31 12:45:24;;;;;;;;;;;;;;;21.74;30.17;97429.88;5113250;28;19927;-58
2022/05/31 12:47:56;;;;;;;;;;;;;;;21.51;30.98;97424.72;5113319;28;20390;-59
2022/05/31 12:50:57;;;;;;;;;;;;;;;21.38;32.21;97427.09;5112825;28;20364;-58
2022/05/31 12:53:49;;;;;;;;;;;;;;;21.36;35.03;97428.66;5010597;28;19921;-58
2022/05/31 12:56:32;;;;;;;;;;;;;;;21.42;36.03;97427.13;5010876;28;19944;-57
2022/05/31 12:59:44;;;;;;;;;;;;;;;21.38;35.21;97423.56;5083541;28;20384;-58
2022/05/31 13:02:20;;;;;;;;;;;;;;;21.36;33.00;97415.66;5110923;28;19927;-59
2022/05/31 13:04:53;;;;;;;;;;;;;;;21.40;34.88;97421.19;5091747;28;19942;-59
2022/05/31 13:07:21;;;;;;;;;;;;;;;21.35;35.63;97419.59;5095242;28;19987;-58
2022/05/31 13:09:49;;;;;;;;;;;;;;;21.29;33.49;97407.31;5100784;28;19920;-58
2022/05/31 13:20:49;;;;;;;;;;;;;;;21.70;36.37;97412.47;5096407;28;19965;-58
2022/05/31 13:23:28;;;;;;;;;;;;;;;21.86;35.20;97399.03;5098724;28;19981;-57
2022/05/31 13:25:56;;;;;;;;;;;;;;;22.03;37.01;97410.44;5110334;28;20249;-57
2022/05/31 13:28:49;;;;;;;;;;;;;;;22.03;35.04;97408.47;5106962;28;19920;-57
2022/05/31 13:31:21;;;;;;;;;;;;;;;22.01;30.90;97399.78;5108266;28;20301;-58
2022/05/31 13:33:56;;;;;;;;;;;;;;;21.89;33.99;97403.78;5096465;28;19998;-58
2022/05/31 13:36:26;;;;;;;;;;;;;;;21.83;32.89;97399.03;5107792;28;20397;-58
2022/05/31 13:38:56;;;;;;;;;;;;;;;21.65;34.24;97401.81;5107688;28;20022;-58
2022/05/31 13:41:24;;;;;;;;;;;;;;;21.52;33.60;97392.34;5089862;28;19940;-58
2022/05/31 13:43:54;;;;;;;;;;;;;;;21.47;35.75;97404.63;5106703;28;19941;-58
2022/05/31 13:46:26;;;;;;;;;;;;;;;21.35;31.48;97389.19;5090005;28;19942;-58
2022/05/31 13:48:55;;;;;;;;;;;;;;;21.29;32.85;97390.75;5095455;28;20011;-58
2022/05/31 13:51:24;;;;;;;;;;;;;;;21.24;31.85;97391.13;5096542;28;19920;-59
2022/05/31 13:53:53;;;;;;;;;;;;;;;21.21;34.10;97391.94;5094695;28;19965;-58
2022/05/31 13:56:22;;;;;;;;;;;;;;;21.16;33.58;97400.63;5091296;28;19928;-59
2022/05/31 13:58:51;;;;;;;;;;;;;;;21.15;34.66;97407.34;5100849;28;20097;-58
2022/05/31 14:01:29;;;;;;;;;;;;;;;21.11;34.14;97404.56;5099773;28;20018;-58
2022/05/31 14:04:24;;;;;;;;;;;;;;;21.13;31.57;97448.34;5091151;28;20080;-59
2022/05/31 14:06:52;;;;;;;;;;;;;;;21.05;26.77;97405.34;5110218;28;20364;-59
2022/05/31 14:09:22;;;;;;;;;;;;;;;21.04;28.92;97414.78;5106484;28;19920;-58
2022/05/31 14:11:52;;;;;;;;;;;;;;;21.02;27.77;97419.94;5110150;28;19920;-59
2022/05/31 14:14:24;;;;;;;;;;;;;;;20.95;24.63;97422.69;5108250;28;19920;-58
2022/05/31 14:16:54;;;;;;;;;;;;;;;20.89;23.69;97417.56;5110483;28;19930;-58
2022/05/31 14:19:24;;;;;;;;;;;;;;;21.02;24.99;97417.16;5102442;28;19920;-58
2022/05/31 14:21:52;;;;;;;;;;;;;;;21.04;25.13;97393.50;5113780;28;19976;-59
2022/05/31 14:24:21;;;;;;;;;;;;;;;20.97;24.69;97398.22;5106750;28;19920;-58
2022/05/31 14:26:50;;;;;;;;;;;;;;;20.99;26.13;97396.66;5104710;28;20813;-59
2022/05/31 14:29:19;;;;;;;;;;;;;;;20.98;24.04;97395.06;5099090;28;20000;-59
2022/05/31 14:31:49;;;;;;;;;;;;;;;21.10;23.67;97396.69;5104283;28;20368;-58
2022/05/31 14:34:26;;;;;;;;;;;;;;;20.97;24.02;97387.97;5096803;28;19935;-60
2022/05/31 14:36:54;;;;;;;;;;;;;;;21.11;25.76;97399.03;5104823;28;19920;-58
2022/05/31 14:39:23;;;;;;;;;;;;;;;21.13;23.52;97395.88;5100865;28;19924;-58
2022/05/31 14:41:54;;;;;;;;;;;;;;;21.11;23.83;97398.25;5105893;28;20260;-58
2022/05/31 14:44:45;;;;;;;;;;;;;;;21.02;24.42;97397.84;5105316;28;19924;-58
2022/05/31 14:47:38;;;;;;;;;;;;;;;21.14;29.07;97383.63;5096540;28;19934;-58
2022/05/31 14:50:15;;;;;;;;;;;;;;;21.10;24.99;97389.19;5114091;28;19981;-58
2022/05/31 14:52:45;;;;;;;;;;;;;;;21.19;28.24;97395.09;5099841;28;19924;-58
2022/05/31 14:55:14;;;;;;;;;;;;;;;21.14;25.74;97395.47;5108090;28;20014;-58
2022/05/31 15:00:38;;;;;;;;;;;;;;;21.36;29.99;97393.56;5097487;28;20375;-58
2022/05/31 15:03:07;;;;;;;;;;;;;;;21.33;27.13;97386.06;5108137;27;19964;-58
2022/05/31 15:08:33;;;;;;;;;;;;;;;21.41;28.37;97384.88;5100701;28;19926;-57
2022/05/31 15:19:35;;;;;;;;;;;;;;;21.17;29.31;97391.94;5097229;27;19935;-58
2022/05/31 15:22:42;;;;;;;;;;;;;;;21.23;29.75;97388.78;5098162;28;19935;-60
2022/05/31 15:25:22;;;;;;;;;;;;;;;21.41;30.22;97395.94;5096819;28;19927;-66
2022/05/31 15:27:51;;;;;;;;;;;;;;;21.39;31.73;97383.69;5102212;28;19920;-60
2022/05/31 15:30:19;;;;;;;;;;;;;;;21.31;32.79;97395.94;5103942;28;19924;-57
2022/05/31 15:33:07;;;;;;;;;;;;;;;21.44;33.30;97399.88;5096406;28;19919;-53
2022/05/31 15:35:35;;;;;;;;;;;;;;;21.37;33.83;97397.91;5079947;28;20018;-59
2022/05/31 15:38:25;;;;;;;;;;;;;;;21.38;34.21;97391.19;5096069;28;20019;-58
2022/05/31 15:40:53;;;;;;;;;;;;;;;21.32;34.63;97408.56;5104299;28;19928;-58
2022/05/31 15:46:06;;;;;;;;;;;;;;;20.99;35.36;97409.69;5102226;28;20401;-57
2022/05/31 15:48:34;;;;;;;;;;;;;;;21.10;35.10;97400.22;5098004;28;19923;-57
2022/05/31 15:51:02;;;;;;;;;;;;;;;20.96;35.21;97407.69;5099354;28;19919;-56
2022/05/31 15:53:35;;;;;;;;;;;;;;;20.95;35.15;97406.91;5105304;28;19919;-56
2022/05/31 15:56:03;;;;;;;;;;;;;;;20.78;34.27;97405.69;5102450;28;20381;-57
2022/05/31 15:58:55;;;;;;;;;;;;;;;20.73;34.03;97408.03;5105979;28;19920;-52